createdAt,value
2023-03-06T00:01:52.078Z,0.66
2023-03-06T07:02:20.650Z,2.30
2023-03-06T07:05:03.028Z,2.34
2023-03-06T07:07:39.749Z,2.38
2023-03-06T07:10:16.126Z,2.42
2023-03-06T07:12:49.777Z,2.46
2023-03-06T07:15:30.878Z,2.50
2023-03-06T07:18:01.954Z,2.52
2023-03-06T07:20:47.868Z,2.55
2023-03-06T07:23:19.341Z,2.60
2023-03-06T07:25:47.833Z,2.69
2023-03-06T07:28:51.315Z,2.77
2023-03-06T07:31:40.803Z,2.90
2023-03-06T07:34:13.441Z,2.95
2023-03-06T07:36:47.975Z,3.00
2023-03-06T07:39:32.074Z,3.09
2023-03-06T07:42:07.541Z,3.21
2023-03-06T07:44:39.563Z,3.32
2023-03-06T07:47:16.916Z,3.40
2023-03-06T07:49:49.022Z,3.47
2023-03-06T07:52:22.026Z,3.51
2023-03-06T07:55:05.356Z,3.52
2023-03-06T07:58:09.755Z,3.56
2023-03-06T08:00:51.214Z,3.57
2023-03-06T08:03:24.477Z,3.58
2023-03-06T08:06:13.837Z,3.58
2023-03-06T08:09:20.229Z,3.61
2023-03-06T08:12:09.476Z,3.64
2023-03-06T08:14:53.102Z,3.65
2023-03-06T08:17:41.878Z,3.67
2023-03-06T08:20:22.208Z,3.69
2023-03-06T08:23:01.812Z,3.69
2023-03-06T08:25:59.045Z,3.72
2023-03-06T08:29:48.393Z,3.72
2023-03-06T08:32:24.651Z,3.73
2023-03-06T08:35:20.564Z,3.74
2023-03-06T08:38:32.040Z,3.72
2023-03-06T08:42:04.281Z,3.72
2023-03-06T08:45:15.471Z,3.76
2023-03-06T08:48:21.882Z,3.82
2023-03-06T08:51:32.183Z,3.88
2023-03-06T09:05:56.311Z,4.81
2023-03-06T09:08:36.658Z,4.90
2023-03-06T09:11:46.634Z,4.91
2023-03-06T09:14:37.924Z,4.91
2023-03-06T09:17:57.709Z,4.92
2023-03-06T09:20:35.598Z,4.98
2023-03-06T09:24:04.602Z,4.97
2023-03-06T09:27:23.265Z,5.00
2023-03-06T09:30:06.645Z,5.13
2023-03-06T09:33:34.788Z,5.32
2023-03-06T09:36:30.346Z,5.65
2023-03-06T09:39:24.173Z,5.84
2023-03-06T09:42:41.017Z,5.99
2023-03-06T09:46:23.201Z,6.18
2023-03-06T09:49:57.749Z,6.41
2023-03-06T09:53:38.480Z,6.54
2023-03-06T09:56:20.179Z,6.60
2023-03-06T10:12:56.471Z,7.47
2023-03-06T10:15:42.151Z,7.58
2023-03-06T10:18:43.379Z,7.70
2023-03-06T10:22:28.330Z,7.87
2023-03-06T10:26:29.398Z,8.05
2023-03-06T10:30:02.751Z,8.25
2023-03-06T11:07:11.520Z,8.43
2023-03-06T11:14:20.362Z,7.70
2023-03-06T11:17:59.777Z,7.28
2023-03-06T11:21:21.580Z,6.99
2023-03-06T11:24:44.190Z,6.74
2023-03-06T11:27:57.378Z,6.56
2023-03-06T11:54:02.975Z,6.47
2023-03-06T11:57:28.128Z,6.38
2023-03-06T12:00:45.669Z,6.24
2023-03-06T12:03:50.191Z,6.10
2023-03-06T12:07:22.471Z,5.97
2023-03-06T12:10:51.821Z,5.83
2023-03-06T12:14:30.400Z,5.68
2023-03-06T12:18:00.947Z,5.56
2023-03-06T12:21:55.766Z,5.39
2023-03-06T12:24:52.872Z,5.22
2023-03-06T12:28:15.372Z,5.09
2023-03-06T12:31:41.331Z,4.94
2023-03-06T12:35:04.087Z,4.88
2023-03-06T12:38:55.088Z,4.84
2023-03-06T12:41:48.205Z,4.80
2023-03-06T12:45:20.797Z,4.77
2023-03-06T12:49:31.453Z,4.73
2023-03-06T12:53:03.436Z,4.67
2023-03-06T12:55:55.865Z,4.62
2023-03-06T12:58:30.229Z,4.58
2023-03-06T13:01:20.126Z,4.53
2023-03-06T13:04:56.451Z,4.49
2023-03-06T13:08:22.712Z,4.41
2023-03-06T14:04:59.166Z,4.57
2023-03-06T14:08:22.883Z,4.65
2023-03-06T14:11:41.707Z,4.68
2023-03-06T14:14:20.659Z,4.73
2023-03-06T14:17:38.908Z,4.78
2023-03-06T14:20:40.183Z,4.83
2023-03-06T14:24:01.664Z,4.83
2023-03-06T14:26:40.334Z,4.84
2023-03-06T14:29:24.069Z,4.84
2023-03-06T14:32:14.542Z,4.86
2023-03-06T14:34:47.329Z,4.89
2023-03-06T14:37:35.154Z,4.91
2023-03-06T14:40:56.184Z,4.92
2023-03-06T14:43:50.543Z,4.93
2023-03-06T14:46:42.929Z,4.93
2023-03-06T14:49:34.039Z,4.91
2023-03-06T14:52:25.681Z,4.88
2023-03-06T14:55:42.453Z,4.82
2023-03-06T14:59:17.878Z,4.74
2023-03-06T15:01:57.159Z,4.65
2023-03-06T15:05:25.090Z,4.60
2023-03-06T15:09:14.080Z,4.46
2023-03-06T15:13:01.840Z,4.13
2023-03-06T15:16:42.718Z,3.88
2023-03-06T15:19:26.822Z,3.76
2023-03-06T15:22:50.856Z,3.69
2023-03-06T15:26:02.177Z,3.59
2023-03-06T15:29:09.326Z,3.49
2023-03-06T16:12:39.572Z,1.87
2023-03-06T16:15:22.667Z,1.85
2023-03-06T16:18:35.112Z,1.85
2023-03-06T16:21:39.039Z,1.83
2023-03-06T16:24:38.405Z,1.84
2023-03-06T16:28:32.438Z,1.86
2023-03-06T16:32:04.796Z,1.89
2023-03-06T16:35:30.822Z,1.90
2023-03-06T16:38:04.918Z,1.92
2023-03-06T16:41:10.229Z,1.94
2023-03-06T16:44:15.791Z,1.97
2023-03-06T16:47:07.529Z,1.99
2023-03-06T16:50:22.340Z,2.03
2023-03-06T16:53:44.289Z,2.09
2023-03-06T16:57:11.160Z,2.15
2023-03-06T17:00:43.136Z,2.20
2023-03-06T17:04:21.065Z,2.24
2023-03-06T17:06:53.341Z,2.30
2023-03-06T17:09:57.652Z,2.33
2023-03-06T17:13:13.204Z,2.37
2023-03-06T17:16:51.681Z,2.40
2023-03-06T17:20:41.948Z,2.46
2023-03-06T17:23:52.692Z,2.55
2023-03-06T17:27:41.695Z,2.62
2023-03-06T17:30:51.125Z,2.67
2023-03-06T17:37:59.569Z,2.72
2023-03-06T18:19:48.515Z,2.65
2023-03-06T18:22:30.418Z,2.64
2023-03-06T18:25:52.783Z,2.62
2023-03-06T18:29:04.632Z,2.61
2023-03-06T18:31:50.055Z,2.59
2023-03-06T18:34:55.104Z,2.59
2023-03-06T18:37:26.013Z,2.58
2023-03-06T18:40:17.148Z,2.59
2023-03-06T18:42:48.109Z,2.58
2023-03-06T18:45:59.458Z,2.58
2023-03-06T18:49:24.718Z,2.56
2023-03-06T18:52:57.324Z,2.54
2023-03-06T18:56:29.789Z,2.53
2023-03-06T18:59:51.380Z,2.50
2023-03-06T19:03:40.641Z,2.50
2023-03-06T19:07:28.836Z,2.51
2023-03-06T19:11:02.599Z,2.49
2023-03-06T19:45:54.072Z,2.57
2023-03-06T19:48:43.700Z,2.58
2023-03-06T19:52:06.728Z,2.59
2023-03-06T19:55:13.763Z,2.61
2023-03-06T19:58:54.798Z,2.64
2023-03-06T20:02:43.767Z,2.64
2023-03-06T20:06:13.018Z,2.65
2023-03-06T20:09:47.850Z,2.70
2023-03-06T20:13:21.365Z,2.74
2023-03-06T20:17:09.693Z,2.79
2023-03-06T20:20:59.496Z,2.84
2023-03-06T20:24:17.971Z,2.88
2023-03-06T20:39:14.695Z,2.96
2023-03-06T20:42:44.997Z,2.98
2023-03-06T20:45:23.355Z,2.99
2023-03-06T20:48:15.440Z,2.99
2023-03-06T20:51:39.328Z,2.99
2023-03-06T20:54:30.717Z,2.99
2023-03-06T20:57:53.618Z,2.99
2023-03-06T21:00:49.287Z,3.00
2023-03-06T21:03:52.607Z,3.01
2023-03-06T21:06:47.682Z,3.02
2023-03-06T21:09:58.503Z,3.03
2023-03-06T21:12:41.398Z,3.02
2023-03-06T21:15:30.891Z,3.02
2023-03-06T21:18:22.935Z,2.99
2023-03-06T21:21:26.712Z,2.97
2023-03-06T21:24:48.343Z,2.95
2023-03-06T21:28:20.027Z,2.94
2023-03-06T21:31:19.852Z,2.92
2023-03-06T21:34:48.712Z,2.93
2023-03-06T21:38:13.631Z,2.93
2023-03-06T21:41:02.533Z,2.89
2023-03-06T21:44:47.690Z,2.85
2023-03-06T21:48:19.670Z,2.81
2023-03-06T21:52:11.795Z,2.77
2023-03-06T21:55:33.817Z,2.74
2023-03-06T21:59:44.338Z,2.67
2023-03-06T22:03:02.794Z,2.63
2023-03-06T22:06:10.407Z,2.62
2023-03-06T22:09:57.917Z,2.61
2023-03-06T22:12:47.436Z,2.62
2023-03-06T22:15:56.412Z,2.63
2023-03-06T22:18:33.764Z,2.63
2023-03-06T22:22:12.580Z,2.63
2023-03-06T22:25:36.141Z,2.64
2023-03-06T22:28:46.841Z,2.63
2023-03-06T22:31:30.207Z,2.62
2023-03-06T22:34:23.078Z,2.62
2023-03-06T22:36:58.633Z,2.61
2023-03-06T22:39:30.231Z,2.60
2023-03-06T22:42:18.772Z,2.60
2023-03-06T22:45:18.366Z,2.60
2023-03-06T22:48:36.165Z,2.61
2023-03-06T22:52:23.173Z,2.63
2023-03-06T22:55:33.867Z,2.62
2023-03-06T22:58:43.959Z,2.61
2023-03-06T23:01:22.760Z,2.60
2023-03-06T23:04:17.571Z,2.59
2023-03-06T23:07:07.951Z,2.60
2023-03-06T23:10:18.192Z,2.60
2023-03-06T23:13:25.710Z,2.62
2023-03-06T23:16:33.853Z,2.63
2023-03-06T23:20:10.195Z,2.64
2023-03-06T23:23:15.912Z,2.66
2023-03-06T23:26:24.011Z,2.67
2023-03-06T23:29:12.487Z,2.67
2023-03-06T23:32:39.880Z,2.67
2023-03-06T23:35:09.569Z,2.68
2023-03-06T23:38:31.613Z,2.70
2023-03-06T23:41:43.091Z,2.72
2023-03-06T23:44:56.959Z,2.75
2023-03-06T23:47:51.744Z,2.77
2023-03-06T23:51:29.765Z,2.78
2023-03-06T23:54:32.488Z,2.78
2023-03-06T23:57:22.965Z,2.78
